createdAt,value
2023-01-21T00:05:03.605Z,1.6
2023-01-21T00:10:26.351Z,1.6
2023-01-21T00:15:17.548Z,1.6
2023-01-21T00:20:39.955Z,1.6
2023-01-21T00:26:02.524Z,1.6
2023-01-21T00:31:27.056Z,1.6
2023-01-21T00:36:49.947Z,1.6
2023-01-21T00:42:12.156Z,1.6
2023-01-21T00:47:34.727Z,1.6
2023-01-21T00:52:26.560Z,1.6
2023-01-21T00:57:34.638Z,1.6
2023-01-21T01:02:42.295Z,1.7
2023-01-21T01:08:05.082Z,1.6
2023-01-21T01:13:28.406Z,1.6
2023-01-21T01:18:35.386Z,1.7
2023-01-21T01:23:58.156Z,1.7
2023-01-21T01:29:21.503Z,1.7
2023-01-21T01:34:44.180Z,1.7
2023-01-21T01:39:51.560Z,1.7
2023-01-21T01:45:14.099Z,1.7
2023-01-21T01:55:44.670Z,1.7
2023-01-21T02:01:07.557Z,1.7
2023-01-21T02:06:30.667Z,1.7
2023-01-21T02:11:52.798Z,1.7
2023-01-21T02:17:15.459Z,1.7
2023-01-21T02:22:37.988Z,1.6
2023-01-21T02:27:48.765Z,1.6
2023-01-21T02:33:12.686Z,1.6
2023-01-21T02:38:19.250Z,1.6
2023-01-21T02:43:42.197Z,1.6
2023-01-21T02:49:05.533Z,1.6
2023-01-21T02:54:28.752Z,1.6
2023-01-21T02:59:20.663Z,1.6
2023-01-21T03:04:43.611Z,1.6
2023-01-21T03:10:05.457Z,1.5
2023-01-21T03:15:12.645Z,1.5
2023-01-21T03:20:36.437Z,1.4
2023-01-21T03:25:58.140Z,1.4
2023-01-21T03:31:21.089Z,1.3
2023-01-21T03:36:44.509Z,1.2
2023-01-21T03:41:51.143Z,1.1
2023-01-21T03:46:58.370Z,1
2023-01-21T03:52:05.880Z,0.9
2023-01-21T03:57:28.187Z,0.8
2023-01-21T04:02:35.589Z,0.6
2023-01-21T04:07:43.152Z,0.5
2023-01-21T04:13:05.829Z,0.3
2023-01-21T04:18:16.976Z,0.3
2023-01-21T04:23:24.998Z,0.3
2023-01-21T04:28:50.424Z,0.2
2023-01-21T04:34:12.476Z,0.1
2023-01-21T04:39:35.012Z,0.1
2023-01-21T04:44:57.951Z,0.1
2023-01-21T04:50:20.229Z,0.1
2023-01-21T04:55:43.991Z,0.1
2023-01-21T05:00:51.308Z,0.1
2023-01-21T05:05:58.430Z,0.1
2023-01-21T05:11:22.293Z,0.1
2023-01-21T05:16:44.855Z,0.1
2023-01-21T05:21:52.264Z,0
2023-01-21T05:27:15.089Z,-0.1
2023-01-21T05:32:38.307Z,-0.1
2023-01-21T05:37:29.972Z,-0.2
2023-01-21T05:42:53.401Z,-0.3
2023-01-21T05:48:17.921Z,-0.3
2023-01-21T05:53:40.967Z,-0.4
2023-01-21T05:59:02.901Z,-0.5
2023-01-21T06:04:10.117Z,-0.6
2023-01-21T06:09:32.591Z,-0.6
2023-01-21T06:14:55.667Z,-0.6
2023-01-21T06:20:02.948Z,-0.6
2023-01-21T06:25:26.014Z,-0.6
2023-01-21T06:30:33.687Z,-0.5
2023-01-21T06:35:42.169Z,-0.3
2023-01-21T06:41:04.876Z,0.1
2023-01-21T06:46:29.208Z,1.4
2023-01-21T06:51:46.621Z,4.1
2023-01-21T06:57:09.632Z,7.4
2023-01-21T07:02:32.106Z,10.6
2023-01-21T07:07:39.855Z,13.6
2023-01-21T07:12:47.444Z,16.9
2023-01-21T07:18:11.402Z,20.6
2023-01-21T07:23:18.371Z,23.9
2023-01-21T07:28:41.512Z,27.4
2023-01-21T07:34:07.517Z,30.6
2023-01-21T07:39:29.546Z,32.7
2023-01-21T07:44:51.748Z,35.1
2023-01-21T07:50:17.061Z,38.1
2023-01-21T07:55:39.571Z,41.4
2023-01-21T08:01:02.119Z,46.9
2023-01-21T08:06:25.436Z,47.2
2023-01-21T08:11:47.696Z,38.8
2023-01-21T08:17:10.806Z,36.4
2023-01-21T08:22:33.514Z,40.1
2023-01-21T08:27:56.139Z,46.5
2023-01-21T08:33:18.909Z,48
2023-01-21T08:38:42.100Z,44.3
2023-01-21T08:44:04.639Z,43.4
2023-01-21T08:49:27.580Z,44.6
2023-01-21T08:54:35.542Z,43.2
2023-01-21T08:59:58.092Z,44.5
2023-01-21T09:05:06.166Z,42.5
2023-01-21T09:10:28.910Z,42.5
2023-01-21T09:15:51.971Z,41.1
2023-01-21T09:21:15.194Z,36.8
2023-01-21T09:26:37.848Z,37.8
2023-01-21T09:32:01.235Z,42.5
2023-01-21T09:36:40.279Z,49.6
2023-01-21T09:42:03.349Z,48.6
2023-01-21T09:47:26.605Z,48.1
2023-01-21T09:52:49.323Z,45.3
2023-01-21T09:58:12.844Z,40.2
2023-01-21T10:03:37.158Z,43.9
2023-01-21T10:09:00.395Z,52.1
2023-01-21T10:14:23.418Z,52.8
2023-01-21T10:19:46.360Z,52.1
2023-01-21T10:25:11.428Z,51.2
2023-01-21T10:30:34.416Z,45.6
2023-01-21T10:35:26.684Z,44.3
2023-01-21T10:40:51.466Z,51.3
2023-01-21T10:46:15.519Z,53.1
2023-01-21T10:51:40.151Z,52
2023-01-21T10:57:03.415Z,52.6
2023-01-21T11:02:28.053Z,54.3
2023-01-21T11:07:35.615Z,55.3
2023-01-21T11:12:58.583Z,52.1
2023-01-21T11:18:22.391Z,54.1
2023-01-21T11:23:47.481Z,52.9
2023-01-21T11:39:33.420Z,52.1
2023-01-21T11:44:56.483Z,44.8
2023-01-21T11:50:20.031Z,40.7
2023-01-21T11:55:42.966Z,38.4
2023-01-21T12:01:05.560Z,36.8
2023-01-21T12:06:28.582Z,34.8
2023-01-21T12:11:51.187Z,33.2
2023-01-21T12:17:16.049Z,32
2023-01-21T12:22:39.480Z,30.8
2023-01-21T12:27:46.339Z,31.1
2023-01-21T12:33:09.922Z,33.3
2023-01-21T12:38:32.737Z,34
2023-01-21T12:43:55.761Z,33.3
2023-01-21T12:49:19.794Z,32.6
2023-01-21T12:54:43.091Z,31.4
2023-01-21T13:00:07.328Z,29.8
2023-01-21T13:05:30.493Z,28
2023-01-21T13:10:56.709Z,26.4
2023-01-21T13:16:03.942Z,24.6
2023-01-21T13:21:11.719Z,22.9
2023-01-21T13:26:34.889Z,21.4
2023-01-21T13:31:59.508Z,20.1
2023-01-21T13:37:22.386Z,19.1
2023-01-21T13:42:44.968Z,18.3
2023-01-21T13:48:08.058Z,17.6
2023-01-21T13:53:30.678Z,17.2
2023-01-21T13:58:53.228Z,16.7
2023-01-21T14:04:03.227Z,16.3
2023-01-21T14:09:25.395Z,15.8
2023-01-21T14:14:48.315Z,15.3
2023-01-21T14:19:55.957Z,14.8
2023-01-21T14:25:18.358Z,14.3
2023-01-21T14:30:42.692Z,13.8
2023-01-21T14:36:05.828Z,13.5
2023-01-21T14:41:29.326Z,13.3
2023-01-21T14:46:54.436Z,13
2023-01-21T14:52:17.448Z,12.6
2023-01-21T14:57:52.354Z,12.3
2023-01-21T15:03:16.878Z,12
2023-01-21T15:08:41.762Z,11.7
2023-01-21T15:14:05.277Z,11.4
2023-01-21T15:19:29.983Z,11.1
2023-01-21T15:24:55.456Z,10.9
2023-01-21T15:30:17.614Z,10.6
2023-01-21T15:35:50.300Z,10.4
2023-01-21T15:41:12.735Z,10.1
2023-01-21T15:46:36.755Z,9.9
2023-01-21T15:52:09.470Z,9.7
2023-01-21T15:57:32.253Z,9.5
2023-01-21T16:02:57.796Z,9.3
2023-01-21T16:08:20.764Z,9.1
2023-01-21T16:13:43.770Z,8.9
2023-01-21T16:19:07.420Z,8.8
2023-01-21T16:24:32.565Z,8.7
2023-01-21T16:29:27.303Z,8.6
2023-01-21T16:34:36.141Z,8.4
2023-01-21T16:39:59.530Z,8.4
2023-01-21T16:45:21.430Z,8.3
2023-01-21T16:50:28.936Z,8.3
2023-01-21T16:55:52.862Z,8.2
2023-01-21T17:01:16.316Z,8
2023-01-21T17:06:39.522Z,7.8
2023-01-21T17:11:47.492Z,7.8
2023-01-21T17:17:10.946Z,7.7
2023-01-21T17:22:35.944Z,7.7
2023-01-21T17:27:59.792Z,7.7
2023-01-21T17:33:08.478Z,7.6
2023-01-21T17:38:18.430Z,7.6
2023-01-21T17:43:42.709Z,7.6
2023-01-21T17:49:29.700Z,7.5
2023-01-21T17:54:57.357Z,7.4
2023-01-21T18:00:24.276Z,7.3
2023-01-21T18:05:38.261Z,7.2
2023-01-21T18:10:50.354Z,7.1
2023-01-21T18:16:22.393Z,7.1
2023-01-21T18:21:49.381Z,7.1
2023-01-21T18:27:15.429Z,7.1
2023-01-21T18:32:42.957Z,7.1
2023-01-21T18:37:54.959Z,7
2023-01-21T18:43:05.702Z,7
2023-01-21T18:48:33.384Z,6.9
2023-01-21T18:53:58.724Z,6.8
2023-01-21T18:59:24.128Z,6.8
2023-01-21T19:04:52.573Z,6.7
2023-01-21T19:10:20.507Z,6.5
2023-01-21T19:15:49.425Z,6.4
2023-01-21T19:21:21.901Z,6.2
2023-01-21T19:26:53.098Z,6
2023-01-21T19:32:25.887Z,5.9
2023-01-21T19:37:57.492Z,5.8
2023-01-21T19:43:23.606Z,5.7
2023-01-21T19:48:56.732Z,5.7
2023-01-21T19:54:13.237Z,5.7
2023-01-21T19:59:46.784Z,5.6
2023-01-21T20:05:30.496Z,5.6
2023-01-21T20:10:44.844Z,5.6
2023-01-21T20:16:14.551Z,5.6
2023-01-21T20:21:54.436Z,5.6
2023-01-21T20:27:28.885Z,5.6
2023-01-21T20:33:13.075Z,5.6
2023-01-21T20:38:37.795Z,5.6
2023-01-21T20:44:01.963Z,5.6
2023-01-21T20:49:23.437Z,5.6
2023-01-21T20:54:47.200Z,5.6
2023-01-21T21:00:12.835Z,5.6
2023-01-21T21:05:25.202Z,5.6
2023-01-21T21:10:51.394Z,5.6
2023-01-21T21:15:59.543Z,5.6
2023-01-21T21:21:23.786Z,5.6
2023-01-21T21:26:32.003Z,5.6
2023-01-21T21:31:55.928Z,5.5
2023-01-21T21:37:19.782Z,5.5
2023-01-21T21:42:42.832Z,5.4
2023-01-21T21:48:06.337Z,5.4
2023-01-21T21:53:14.467Z,5.4
2023-01-21T21:58:36.982Z,5.4
2023-01-21T22:04:00.279Z,5.3
2023-01-21T22:09:22.876Z,5.1
2023-01-21T22:14:45.903Z,4.9
2023-01-21T22:20:11.720Z,4.8
2023-01-21T22:25:33.844Z,4.6
2023-01-21T22:30:57.539Z,4.6
2023-01-21T22:36:20.842Z,4.4
2023-01-21T22:41:43.575Z,4.3
2023-01-21T22:47:07.546Z,4.3
2023-01-21T22:52:14.485Z,4.4
2023-01-21T23:02:51.596Z,4.6
2023-01-21T23:08:14.640Z,4.6
2023-01-21T23:13:38.965Z,4.6
2023-01-21T23:18:30.792Z,4.6
2023-01-21T23:23:53.860Z,4.6
2023-01-21T23:29:16.719Z,4.7
2023-01-21T23:34:09.125Z,4.7
2023-01-21T23:39:34.737Z,4.8
2023-01-21T23:44:56.478Z,4.9
2023-01-21T23:50:19.812Z,4.9
2023-01-21T23:55:42.511Z,4.9
